Alyeska Resort Wx Sites
Hourly Roundup from Summit Site
ALYSUM 12/21/2014
Click Here to View Graph!

        DATE  TIME   Air  Wind  Wind  Wind   Rel  BATT Solar
                    Temp   Spd   Dir  Gust  Hum%  Volt Watts
                      F   AVG   AVG   MAX   AVG   AVG    M

  12/21/2014 01:00    28    10    80    24    99 12.70  0.00
  12/20/2014 24:00    27     8    79    22    98 12.71  0.00
  12/20/2014 23:00    25     6    82    14    99 12.71  0.00
  12/20/2014 22:00    26    18    57    26    89 12.73  0.00
  12/20/2014 21:00    27     9    69    17    64 12.75  0.00
  12/20/2014 20:00    29     8    88    18    49 12.78  0.00
  12/20/2014 19:00    30     7    94    16    42 12.82  0.00
  12/20/2014 18:00    31     9    88    15    36 12.87  0.00
  12/20/2014 17:00    31    12    84    19    35 12.95  0.23
  12/20/2014 16:00    31    13    60    19    36 13.09  4.75
  12/20/2014 15:00    30     8    41    14    41 13.27 23.33
  12/20/2014 14:00    31     8    39    12    40 13.31 36.05
  12/20/2014 13:00    31     7   353    13    42 13.26 38.68
  12/20/2014 12:00    30    13   332    18    47 13.03 27.19
  12/20/2014 11:00    30    12   328    19    49 12.79  9.91
  12/20/2014 10:00    29     5   317     9    52 12.72  0.69
  12/20/2014 09:00    30     5   344     8    50 12.72  0.00
  12/20/2014 08:00    31     7     7    15    51 12.73  0.00
  12/20/2014 07:00    30     4   340    12    54 12.74  0.00
  12/20/2014 06:00    29     6    18    15    58 12.75  0.00
  12/20/2014 05:00    29     5    95    12    60 12.76  0.00
  12/20/2014 04:00    29     4   159    11    62 12.77  0.00
  12/20/2014 03:00    29     5   307    12    59 12.78  0.00
  12/20/2014 02:00    29     5   273    12    61 12.79  0.00


Click Here to View Graph!